Time;durP1;ratioP1;P1;durP2;ratioP2;P2;SDS_P1;SDS_P2;PMS_P1;PMS_P2;Temp;Humidity;BMP_temperature;BMP_pressure;BME280_temperature;BME280_humidity;BME280_pressure;Samples;Min_cycle;Max_cycle;Signal;HPM_P1;HPM_P2
2023/01/09 00:01:43;;;;;;;3.50;3.13;;;7.30;99.90;;;;;;5006853;28;20732;-32
2023/01/09 00:04:09;;;;;;;3.03;2.73;;;7.40;99.90;;;;;;5001638;28;20639;-33
2023/01/09 00:06:36;;;;;;;2.57;2.20;;;7.40;99.90;;;;;;5019676;28;20174;-33
2023/01/09 00:09:02;;;;;;;3.33;2.60;;;7.40;99.90;;;;;;5020950;28;20218;-32
2023/01/09 00:11:29;;;;;;;1.63;1.53;;;7.50;99.90;;;;;;5030290;28;20182;-31
2023/01/09 00:13:55;;;;;;;2.20;1.90;;;7.60;99.90;;;;;;5004631;28;20389;-30
2023/01/09 00:16:20;;;;;;;2.27;1.87;;;7.60;99.90;;;;;;5030674;28;20189;-32
2023/01/09 00:18:46;;;;;;;1.50;1.40;;;7.70;99.90;;;;;;5026848;28;20195;-34
2023/01/09 00:21:13;;;;;;;3.20;2.00;;;7.70;99.90;;;;;;4993729;28;20203;-33
2023/01/09 00:23:39;;;;;;;2.37;1.30;;;7.80;99.90;;;;;;4994125;28;20210;-30
2023/01/09 00:26:13;;;;;;;2.03;1.27;;;7.80;99.90;;;;;;5028821;28;20191;-33
2023/01/09 00:28:40;;;;;;;1.37;1.10;;;7.80;99.90;;;;;;5013601;28;20193;-30
2023/01/09 00:31:07;;;;;;;1.00;0.90;;;7.80;99.90;;;;;;5019484;28;20216;-32
2023/01/09 00:33:43;;;;;;;0.63;0.63;;;7.80;99.90;;;;;;5023054;28;20182;-31
2023/01/09 00:36:10;;;;;;;1.10;0.83;;;7.90;99.90;;;;;;4996970;28;20178;-32
2023/01/09 00:38:36;;;;;;;1.27;0.60;;;7.90;99.90;;;;;;5013493;28;20198;-30
2023/01/09 00:41:05;;;;;;;0.80;0.80;;;7.80;99.90;;;;;;5013431;28;20231;-32
2023/01/09 00:43:36;;;;;;;0.90;0.60;;;7.90;99.90;;;;;;5031264;28;20175;-31
2023/01/09 00:46:05;;;;;;;0.93;0.80;;;7.80;99.90;;;;;;5013300;28;20206;-32
2023/01/09 00:48:32;;;;;;;0.67;0.67;;;7.90;99.90;;;;;;5013340;28;20237;-31
2023/01/09 00:50:58;;;;;;;0.73;0.67;;;7.80;99.90;;;;;;5030615;28;20263;-31
2023/01/09 00:53:28;;;;;;;0.60;0.60;;;7.90;99.90;;;;;;5013513;28;20175;-32
2023/01/09 00:55:58;;;;;;;1.37;0.80;;;7.90;99.90;;;;;;5012829;28;20175;-32
2023/01/09 00:58:24;;;;;;;0.80;0.80;;;7.90;99.90;;;;;;5012974;28;20222;-31
2023/01/09 01:00:50;;;;;;;0.70;0.70;;;7.80;99.90;;;;;;5028983;28;20202;-32
2023/01/09 01:03:16;;;;;;;1.53;1.00;;;7.90;99.90;;;;;;5031038;28;20202;-31
2023/01/09 01:08:26;;;;;;;1.47;0.80;;;7.90;99.90;;;;;;5032344;28;20226;-33
2023/01/09 01:10:52;;;;;;;0.50;0.50;;;7.90;99.90;;;;;;5034613;28;20279;-31
2023/01/09 01:13:18;;;;;;;0.60;0.60;;;7.90;99.90;;;;;;5033526;28;20196;-33
2023/01/09 01:15:45;;;;;;;0.77;0.70;;;7.90;99.90;;;;;;5034539;28;20170;-31
2023/01/09 01:18:12;;;;;;;2.37;1.00;;;7.90;99.90;;;;;;5034918;28;20203;-33
2023/01/09 01:20:43;;;;;;;3.47;1.07;;;7.90;99.90;;;;;;5034781;28;20225;-32
2023/01/09 01:23:09;;;;;;;0.73;0.70;;;7.90;99.90;;;;;;5016525;28;20268;-31
2023/01/09 01:25:37;;;;;;;1.10;0.80;;;7.90;99.90;;;;;;5000325;28;20237;-30
2023/01/09 01:28:03;;;;;;;1.23;0.80;;;7.90;99.90;;;;;;5016570;28;20206;-30
2023/01/09 01:30:30;;;;;;;0.90;0.80;;;7.90;99.90;;;;;;5017724;28;20280;-30
2023/01/09 01:32:56;;;;;;;0.60;0.60;;;7.90;99.90;;;;;;5012271;28;20178;-31
2023/01/09 01:35:21;;;;;;;1.37;0.70;;;7.90;99.90;;;;;;5024232;28;20174;-32
2023/01/09 01:37:48;;;;;;;0.97;0.80;;;7.90;99.90;;;;;;5034531;28;20190;-31
2023/01/09 01:40:15;;;;;;;0.73;0.70;;;7.90;99.90;;;;;;5000108;28;20597;-31
2023/01/09 01:42:46;;;;;;;0.90;0.70;;;7.90;99.90;;;;;;5000265;28;20191;-32
2023/01/09 01:45:15;;;;;;;0.60;0.60;;;7.90;99.90;;;;;;5000005;28;20643;-31
2023/01/09 01:48:04;;;;;;;1.07;0.80;;;7.80;99.90;;;;;;5017049;28;20218;-34
2023/01/09 01:50:39;;;;;;;1.47;0.70;;;7.80;99.90;;;;;;5033873;28;20206;-33
2023/01/09 01:53:13;;;;;;;0.90;0.90;;;7.80;99.90;;;;;;5016956;28;20256;-33
2023/01/09 01:55:58;;;;;;;1.93;0.80;;;7.80;99.90;;;;;;4996620;28;20213;-33
2023/01/09 01:58:25;;;;;;;0.97;0.80;;;7.80;99.90;;;;;;4996822;28;20214;-32
2023/01/09 02:00:51;;;;;;;0.90;0.90;;;7.80;99.90;;;;;;5032628;28;20185;-34
2023/01/09 02:03:22;;;;;;;1.43;0.70;;;7.70;99.90;;;;;;5027680;28;20188;-34
2023/01/09 02:05:48;;;;;;;0.77;0.60;;;7.80;99.90;;;;;;5039509;28;20182;-33
2023/01/09 02:08:14;;;;;;;0.50;0.50;;;7.70;99.90;;;;;;5016100;28;20253;-33
2023/01/09 02:10:40;;;;;;;0.50;0.50;;;7.70;99.90;;;;;;5015725;28;20206;-33
2023/01/09 02:13:08;;;;;;;0.73;0.53;;;7.70;99.90;;;;;;5016228;28;20217;-33
2023/01/09 02:16:07;;;;;;;0.47;0.47;;;7.70;99.90;;;;;;5015806;28;20175;-33
2023/01/09 02:18:45;;;;;;;0.50;0.50;;;7.70;99.90;;;;;;5008916;28;20210;-33
2023/01/09 02:21:40;;;;;;;0.40;0.40;;;7.70;99.90;;;;;;5015373;28;20189;-33
2023/01/09 02:24:35;;;;;;;0.50;0.50;;;7.60;99.90;;;;;;5015702;28;20257;-33
2023/01/09 02:27:08;;;;;;;1.80;0.50;;;7.70;99.90;;;;;;4996325;28;20229;-33
2023/01/09 02:29:45;;;;;;;0.50;0.50;;;7.60;99.90;;;;;;5000945;28;20289;-33
2023/01/09 02:32:31;;;;;;;0.40;0.40;;;7.60;99.90;;;;;;5041611;28;20170;-33
2023/01/09 02:34:59;;;;;;;1.53;0.60;;;7.60;99.90;;;;;;4988429;28;20213;-32
2023/01/09 02:37:50;;;;;;;1.73;0.60;;;7.60;99.90;;;;;;5015714;28;20198;-33
2023/01/09 02:40:43;;;;;;;1.07;0.60;;;7.60;99.90;;;;;;5015212;28;20178;-33
2023/01/09 02:43:10;;;;;;;1.53;0.67;;;7.60;99.90;;;;;;5015693;28;20179;-33
2023/01/09 02:45:36;;;;;;;0.63;0.63;;;7.60;99.90;;;;;;5032983;28;20183;-32
2023/01/09 02:48:02;;;;;;;0.63;0.63;;;7.60;99.90;;;;;;5033092;28;20212;-33
2023/01/09 02:50:45;;;;;;;0.77;0.77;;;7.50;99.90;;;;;;5014834;28;20217;-32
2023/01/09 02:53:23;;;;;;;0.73;0.70;;;7.60;99.90;;;;;;5015269;28;20174;-32
2023/01/09 02:56:17;;;;;;;0.90;0.83;;;7.50;99.90;;;;;;5015182;28;20281;-33
2023/01/09 02:59:19;;;;;;;0.97;0.80;;;7.50;99.90;;;;;;4998228;28;20205;-33
2023/01/09 03:02:26;;;;;;;0.83;0.80;;;7.50;99.90;;;;;;5023061;28;20178;-33
2023/01/09 03:05:14;;;;;;;3.03;1.10;;;7.40;99.90;;;;;;4992119;28;20213;-33
2023/01/09 03:07:54;;;;;;;1.00;0.67;;;7.40;99.90;;;;;;5014588;28;20198;-33
2023/01/09 03:10:44;;;;;;;1.47;0.60;;;7.40;99.90;;;;;;5014786;28;20216;-32
2023/01/09 03:13:15;;;;;;;0.57;0.50;;;7.40;99.90;;;;;;5002802;28;20178;-32
2023/01/09 03:15:45;;;;;;;0.67;0.67;;;7.30;99.90;;;;;;5018784;28;20178;-33
2023/01/09 03:18:14;;;;;;;1.70;0.60;;;7.30;99.90;;;;;;5014693;28;20229;-33
2023/01/09 03:20:41;;;;;;;0.53;0.40;;;7.30;99.90;;;;;;5013898;28;20194;-34
2023/01/09 03:23:07;;;;;;;0.67;0.40;;;7.30;99.90;;;;;;5032544;28;20193;-33
2023/01/09 03:25:34;;;;;;;1.40;0.40;;;7.30;99.90;;;;;;5014501;28;20193;-33
2023/01/09 03:28:04;;;;;;;0.40;0.40;;;7.30;99.90;;;;;;5003321;28;20198;-33
2023/01/09 03:30:31;;;;;;;2.20;0.40;;;7.30;99.90;;;;;;5036843;28;20194;-33
2023/01/09 03:32:57;;;;;;;0.50;0.50;;;7.30;99.90;;;;;;5025638;28;20186;-33
2023/01/09 03:35:24;;;;;;;0.67;0.60;;;7.20;99.90;;;;;;5004683;28;20186;-32
2023/01/09 03:37:50;;;;;;;0.60;0.60;;;7.20;99.90;;;;;;4998138;28;20194;-32
2023/01/09 03:40:20;;;;;;;1.10;0.50;;;7.20;99.90;;;;;;5031828;28;20190;-33
2023/01/09 03:42:46;;;;;;;0.30;0.30;;;7.20;99.90;;;;;;4998144;28;20550;-32
2023/01/09 03:45:12;;;;;;;0.33;0.33;;;7.10;99.90;;;;;;5013993;28;20205;-33
2023/01/09 03:47:38;;;;;;;0.60;0.40;;;7.10;99.90;;;;;;5013983;28;20242;-32
2023/01/09 03:50:05;;;;;;;0.33;0.33;;;7.10;99.90;;;;;;5031549;28;20245;-32
2023/01/09 03:52:31;;;;;;;0.53;0.30;;;7.10;99.90;;;;;;4997924;28;20204;-32
2023/01/09 03:54:57;;;;;;;0.20;0.20;;;7.10;99.90;;;;;;5013945;28;20210;-32
2023/01/09 03:57:23;;;;;;;0.30;0.30;;;7.10;99.90;;;;;;4997798;28;20245;-32
2023/01/09 03:59:49;;;;;;;0.30;0.30;;;7.00;99.90;;;;;;4997193;28;20262;-33
2023/01/09 04:02:14;;;;;;;0.37;0.30;;;7.00;99.90;;;;;;5022146;28;20216;-33
2023/01/09 04:04:40;;;;;;;0.93;0.40;;;7.00;99.90;;;;;;5025318;28;20200;-32
2023/01/09 04:07:06;;;;;;;0.23;0.23;;;7.00;99.90;;;;;;5014127;28;20259;-33
2023/01/09 04:09:32;;;;;;;0.40;0.40;;;6.90;99.90;;;;;;4993891;28;20285;-32
2023/01/09 04:11:57;;;;;;;0.30;0.30;;;7.00;99.90;;;;;;5010655;28;20175;-32
2023/01/09 04:14:23;;;;;;;0.63;0.30;;;7.00;99.90;;;;;;5016487;28;20201;-32
2023/01/09 04:16:49;;;;;;;0.40;0.40;;;7.00;99.90;;;;;;4997553;28;20202;-33
2023/01/09 04:19:15;;;;;;;0.97;0.30;;;7.00;99.90;;;;;;5013650;28;20270;-32
2023/01/09 04:21:41;;;;;;;0.30;0.30;;;7.00;99.90;;;;;;4997170;28;20194;-33
2023/01/09 04:24:07;;;;;;;0.30;0.30;;;7.00;99.90;;;;;;5031363;28;20189;-32
2023/01/09 04:26:33;;;;;;;0.30;0.30;;;7.00;99.90;;;;;;5013695;28;20178;-32
2023/01/09 04:28:59;;;;;;;0.20;0.20;;;7.00;99.90;;;;;;4996739;28;20204;-31
2023/01/09 04:31:25;;;;;;;0.20;0.20;;;7.00;99.90;;;;;;5005457;28;20271;-33
2023/01/09 04:33:50;;;;;;;0.30;0.30;;;7.00;99.90;;;;;;5009537;28;20673;-33
2023/01/09 04:36:16;;;;;;;1.43;1.33;;;7.00;99.90;;;;;;5013448;28;20293;-33
2023/01/09 04:38:42;;;;;;;0.20;0.20;;;7.00;99.90;;;;;;5018512;28;20209;-33
2023/01/09 04:41:08;;;;;;;0.20;0.20;;;6.90;99.90;;;;;;5014082;28;20170;-32
2023/01/09 04:43:34;;;;;;;0.30;0.30;;;6.90;99.90;;;;;;5012992;28;20179;-33
2023/01/09 04:46:00;;;;;;;0.40;0.40;;;6.80;99.90;;;;;;4996248;28;20275;-33
2023/01/09 04:48:26;;;;;;;0.30;0.30;;;6.80;99.90;;;;;;5012981;28;20221;-32
2023/01/09 04:50:52;;;;;;;0.20;0.20;;;6.80;99.90;;;;;;5012470;28;20217;-32
2023/01/09 04:53:19;;;;;;;0.30;0.30;;;6.70;99.90;;;;;;5013056;28;20190;-32
2023/01/09 04:55:45;;;;;;;0.40;0.40;;;6.70;99.90;;;;;;5030472;28;20179;-32
2023/01/09 04:58:12;;;;;;;1.33;0.40;;;6.60;99.90;;;;;;4995763;28;20198;-32
2023/01/09 05:00:38;;;;;;;0.30;0.30;;;6.60;99.90;;;;;;5014601;28;20205;-32
2023/01/09 05:03:04;;;;;;;0.23;0.23;;;6.50;99.90;;;;;;5038962;28;20274;-33
2023/01/09 05:05:30;;;;;;;0.43;0.43;;;6.40;99.90;;;;;;5013022;28;20179;-33
2023/01/09 05:07:56;;;;;;;0.20;0.20;;;6.30;99.90;;;;;;5012172;28;20220;-32
2023/01/09 05:10:22;;;;;;;0.43;0.30;;;6.20;99.90;;;;;;5013794;28;20280;-32
2023/01/09 05:12:47;;;;;;;0.40;0.40;;;6.20;99.90;;;;;;5030800;28;20180;-33
2023/01/09 05:15:13;;;;;;;0.63;0.37;;;6.10;99.90;;;;;;5012769;28;20185;-33
2023/01/09 05:17:39;;;;;;;0.40;0.30;;;6.10;99.90;;;;;;5012778;28;20217;-33
2023/01/09 05:20:05;;;;;;;0.50;0.50;;;6.10;99.90;;;;;;4996105;28;20181;-32
2023/01/09 05:22:31;;;;;;;0.60;0.30;;;6.00;99.90;;;;;;4997046;28;20184;-32
2023/01/09 05:24:57;;;;;;;1.13;1.00;;;5.90;99.90;;;;;;5030183;28;20264;-32
2023/01/09 05:27:22;;;;;;;1.00;0.90;;;5.90;99.90;;;;;;5005491;28;20205;-32
2023/01/09 05:29:48;;;;;;;0.50;0.50;;;5.90;99.90;;;;;;4977117;28;20209;-33
2023/01/09 05:32:14;;;;;;;2.83;0.50;;;5.90;99.90;;;;;;5039357;28;20184;-32
2023/01/09 05:34:40;;;;;;;0.50;0.40;;;5.80;99.90;;;;;;5027240;28;20180;-33
2023/01/09 05:37:05;;;;;;;0.40;0.40;;;5.80;99.90;;;;;;5029739;28;20199;-32
2023/01/09 05:39:31;;;;;;;1.73;0.50;;;5.80;99.90;;;;;;5011553;28;20216;-32
2023/01/09 05:41:57;;;;;;;0.30;0.30;;;5.80;99.90;;;;;;5003084;28;20179;-32
2023/01/09 05:44:23;;;;;;;1.17;0.40;;;5.80;99.90;;;;;;4994840;28;20174;-33
2023/01/09 05:46:48;;;;;;;1.17;0.80;;;5.80;99.90;;;;;;5011932;28;20215;-33
2023/01/09 05:49:14;;;;;;;0.97;0.70;;;5.80;99.90;;;;;;5029705;28;20181;-33
2023/01/09 05:51:40;;;;;;;0.73;0.70;;;5.80;99.90;;;;;;5011890;28;20267;-33
2023/01/09 05:54:06;;;;;;;0.33;0.33;;;5.70;99.90;;;;;;5015055;28;20234;-32
2023/01/09 05:56:32;;;;;;;1.60;0.40;;;5.70;99.90;;;;;;5033775;28;20182;-32
2023/01/09 05:58:58;;;;;;;0.97;0.50;;;5.70;99.90;;;;;;5031907;28;20186;-32
2023/01/09 06:01:24;;;;;;;1.30;0.57;;;5.70;99.90;;;;;;5031887;28;20194;-32
2023/01/09 06:03:50;;;;;;;2.00;0.70;;;5.70;99.90;;;;;;5001636;28;20189;-33
2023/01/09 06:06:16;;;;;;;0.80;0.50;;;5.70;99.90;;;;;;5025403;28;20366;-32
2023/01/09 06:08:42;;;;;;;0.60;0.60;;;5.60;99.90;;;;;;5013429;28;20208;-32
2023/01/09 06:11:07;;;;;;;0.40;0.40;;;5.70;99.90;;;;;;5041080;28;20205;-32
2023/01/09 06:13:33;;;;;;;2.53;0.60;;;5.70;99.90;;;;;;5015771;28;20238;-32
2023/01/09 06:15:59;;;;;;;2.00;0.70;;;5.70;99.90;;;;;;5015798;28;20181;-32
2023/01/09 06:18:25;;;;;;;1.43;0.80;;;5.70;99.90;;;;;;5033441;28;20197;-32
2023/01/09 06:20:50;;;;;;;1.37;0.60;;;5.70;99.90;;;;;;5015593;28;20615;-33
2023/01/09 06:23:16;;;;;;;1.27;0.50;;;5.60;99.90;;;;;;5015831;28;20193;-32
2023/01/09 06:25:42;;;;;;;1.47;0.70;;;5.60;99.90;;;;;;5014975;28;20185;-32
2023/01/09 06:28:08;;;;;;;0.50;0.50;;;5.60;99.90;;;;;;5014990;28;20213;-32
2023/01/09 06:30:34;;;;;;;2.27;0.60;;;5.60;99.90;;;;;;5017185;28;20207;-32
2023/01/09 06:33:00;;;;;;;1.53;0.73;;;5.60;99.90;;;;;;5045118;28;20169;-33
2023/01/09 06:35:25;;;;;;;2.87;1.00;;;5.50;99.90;;;;;;5037197;28;20181;-33
2023/01/09 06:37:51;;;;;;;2.27;0.87;;;5.50;99.90;;;;;;4998671;28;20311;-34
2023/01/09 06:40:19;;;;;;;1.80;0.83;;;5.40;99.90;;;;;;4998156;28;20195;-33
2023/01/09 06:42:45;;;;;;;4.27;1.40;;;5.50;99.90;;;;;;5014923;28;20283;-33
2023/01/09 06:45:12;;;;;;;1.43;1.13;;;5.50;99.90;;;;;;5015288;28;20286;-33
2023/01/09 06:47:38;;;;;;;3.33;1.07;;;5.50;99.90;;;;;;5010599;28;20225;-33
2023/01/09 06:50:05;;;;;;;0.80;0.60;;;5.50;99.90;;;;;;5032751;28;20215;-33
2023/01/09 06:52:31;;;;;;;2.00;0.80;;;5.50;99.90;;;;;;4998523;28;20641;-32
2023/01/09 06:54:56;;;;;;;1.40;1.00;;;5.50;99.90;;;;;;5014693;28;20192;-33
2023/01/09 06:57:22;;;;;;;1.37;1.00;;;5.50;99.90;;;;;;5031769;28;20209;-33
2023/01/09 06:59:48;;;;;;;0.80;0.80;;;5.50;99.90;;;;;;5014340;28;20271;-33
2023/01/09 07:02:20;;;;;;;1.47;0.90;;;5.50;99.90;;;;;;5012080;28;20191;-33
2023/01/09 07:04:47;;;;;;;2.70;1.00;;;5.40;99.90;;;;;;5009926;28;20199;-32
2023/01/09 07:07:13;;;;;;;2.57;1.00;;;5.40;99.90;;;;;;5000082;28;20215;-33
2023/01/09 07:09:39;;;;;;;3.83;0.97;;;5.40;99.90;;;;;;5012559;28;20215;-33
2023/01/09 07:12:05;;;;;;;1.60;1.00;;;5.40;99.90;;;;;;5028793;28;20169;-33
2023/01/09 07:14:31;;;;;;;1.80;0.90;;;5.40;99.90;;;;;;5015322;28;20191;-32
2023/01/09 07:16:57;;;;;;;2.07;1.10;;;5.30;99.90;;;;;;5014709;28;20201;-32
2023/01/09 07:19:23;;;;;;;3.10;1.23;;;5.30;99.90;;;;;;5018836;28;20184;-33
2023/01/09 07:21:48;;;;;;;2.37;1.00;;;5.30;99.90;;;;;;5014593;28;20238;-32
2023/01/09 07:24:14;;;;;;;2.30;1.13;;;5.30;99.90;;;;;;5014198;28;20188;-34
2023/01/09 07:26:40;;;;;;;3.27;1.30;;;5.20;99.90;;;;;;4996686;28;20243;-33
2023/01/09 07:29:06;;;;;;;2.27;1.40;;;5.20;99.90;;;;;;5025415;28;20271;-33
2023/01/09 07:31:32;;;;;;;1.87;1.30;;;5.20;99.90;;;;;;5014780;28;20188;-33
2023/01/09 07:33:57;;;;;;;3.10;1.30;;;5.30;99.90;;;;;;5013248;28;20187;-33
2023/01/09 07:36:24;;;;;;;3.63;1.60;;;5.30;99.90;;;;;;5029260;28;20189;-32
2023/01/09 07:38:49;;;;;;;3.47;1.10;;;5.30;99.90;;;;;;5028901;28;20201;-33
2023/01/09 07:41:15;;;;;;;3.80;1.20;;;5.30;99.90;;;;;;5029244;28;20188;-32
2023/01/09 07:43:41;;;;;;;1.53;0.93;;;5.30;99.90;;;;;;5003712;28;20202;-33
2023/01/09 07:46:07;;;;;;;2.87;1.00;;;5.30;99.90;;;;;;5029043;28;20183;-33
2023/01/09 07:48:33;;;;;;;3.20;1.23;;;5.30;99.90;;;;;;5011699;28;20211;-30
2023/01/09 07:50:59;;;;;;;2.53;1.30;;;5.30;99.90;;;;;;4995030;28;20265;-30
2023/01/09 07:53:25;;;;;;;2.63;1.30;;;5.40;99.90;;;;;;5028638;28;20212;-30
2023/01/09 07:55:50;;;;;;;3.93;1.27;;;5.40;99.90;;;;;;5028801;28;20180;-31
2023/01/09 07:58:16;;;;;;;1.47;1.10;;;5.40;99.90;;;;;;5014413;28;20211;-29
2023/01/09 08:00:42;;;;;;;2.07;1.10;;;5.30;99.90;;;;;;5028716;28;20187;-30
2023/01/09 08:03:08;;;;;;;2.70;1.10;;;5.30;99.90;;;;;;5013174;28;20185;-32
2023/01/09 08:05:34;;;;;;;2.73;1.10;;;5.40;99.90;;;;;;5028804;28;20183;-31
2023/01/09 08:08:00;;;;;;;1.40;1.00;;;5.40;99.90;;;;;;5016353;28;20216;-31
2023/01/09 08:10:27;;;;;;;3.93;1.30;;;5.40;99.90;;;;;;5027950;28;20208;-29
2023/01/09 08:12:52;;;;;;;3.50;1.23;;;5.40;99.90;;;;;;5014602;28;20188;-30
2023/01/09 08:15:18;;;;;;;2.10;0.93;;;5.40;99.90;;;;;;5014218;28;20186;-31
2023/01/09 08:17:45;;;;;;;1.53;1.00;;;5.40;99.90;;;;;;5013693;28;20206;-30
2023/01/09 08:20:13;;;;;;;1.33;0.93;;;5.40;99.90;;;;;;5027383;28;20186;-30
2023/01/09 08:22:48;;;;;;;3.47;1.20;;;5.40;99.90;;;;;;5001115;28;20254;-30
2023/01/09 08:25:14;;;;;;;2.80;1.30;;;5.40;99.90;;;;;;5001441;28;20203;-31
2023/01/09 08:27:40;;;;;;;2.27;1.10;;;5.50;99.90;;;;;;4998448;28;20202;-31
2023/01/09 08:30:08;;;;;;;2.03;1.00;;;5.60;99.90;;;;;;5013531;28;20222;-31
2023/01/09 08:32:35;;;;;;;4.80;1.43;;;5.60;99.90;;;;;;5013462;28;20185;-31
2023/01/09 08:35:01;;;;;;;4.03;1.30;;;5.70;99.90;;;;;;5028137;28;20259;-31
2023/01/09 08:37:26;;;;;;;1.97;1.40;;;5.80;99.90;;;;;;5002951;28;20203;-31
2023/01/09 08:39:52;;;;;;;4.90;1.60;;;5.90;99.90;;;;;;5027574;28;20576;-31
2023/01/09 08:47:48;;;;;;;4.00;1.47;;;6.20;99.90;;;;;;5027967;28;20220;-31
2023/01/09 08:50:15;;;;;;;3.80;1.47;;;6.20;99.90;;;;;;5014569;28;20203;-30
2023/01/09 08:52:41;;;;;;;1.87;1.20;;;6.30;99.90;;;;;;5028761;28;20200;-30
2023/01/09 08:55:08;;;;;;;3.23;1.50;;;6.40;99.90;;;;;;5028684;28;20192;-31
2023/01/09 08:57:34;;;;;;;3.33;1.40;;;6.50;99.90;;;;;;5033525;28;20202;-32
2023/01/09 09:00:00;;;;;;;4.10;1.47;;;6.50;99.90;;;;;;5036367;28;20178;-30
2023/01/09 09:02:26;;;;;;;2.17;1.40;;;6.60;99.90;;;;;;5040233;28;20202;-31
2023/01/09 09:04:52;;;;;;;2.90;1.20;;;6.70;99.90;;;;;;5030687;28;20314;-29
2023/01/09 09:07:25;;;;;;;2.50;1.10;;;6.70;99.90;;;;;;5029585;28;20204;-31
2023/01/09 09:09:52;;;;;;;4.10;1.50;;;6.70;99.90;;;;;;5015812;28;20209;-31
2023/01/09 09:12:18;;;;;;;3.63;1.40;;;6.70;99.90;;;;;;5030682;28;20177;-31
2023/01/09 09:17:28;;;;;;;6.43;1.83;;;6.70;99.90;;;;;;5039119;28;20293;-29
2023/01/09 09:19:54;;;;;;;4.80;2.00;;;6.70;99.90;;;;;;5018549;28;20265;-30
2023/01/09 09:22:20;;;;;;;6.20;2.50;;;6.70;99.90;;;;;;5030228;28;20189;-31
2023/01/09 09:24:46;;;;;;;3.13;1.50;;;6.80;99.90;;;;;;5029659;28;20192;-32
2023/01/09 09:27:11;;;;;;;3.67;1.30;;;6.90;99.90;;;;;;5013906;28;20201;-31
2023/01/09 09:29:37;;;;;;;4.63;1.60;;;6.90;99.90;;;;;;4999851;28;20243;-30
2023/01/09 09:32:03;;;;;;;4.00;1.23;;;7.00;99.90;;;;;;5024974;28;20182;-30
2023/01/09 09:34:29;;;;;;;4.43;1.20;;;7.20;99.90;;;;;;5034644;28;20276;-30
2023/01/09 09:36:55;;;;;;;3.07;1.10;;;7.30;99.90;;;;;;5036314;28;20201;-30
2023/01/09 09:39:20;;;;;;;3.47;1.10;;;7.40;99.90;;;;;;5050312;28;20270;-31
2023/01/09 09:45:03;;;;;;;3.37;1.10;;;7.60;99.90;;;;;;5015032;28;20182;-30
2023/01/09 09:48:13;;;;;;;2.80;1.07;;;7.80;99.90;;;;;;5015308;28;20263;-30
2023/01/09 09:51:01;;;;;;;5.67;1.20;;;7.90;99.90;;;;;;5014748;28;20221;-30
2023/01/09 09:53:42;;;;;;;3.20;1.20;;;7.90;99.90;;;;;;5015404;28;20186;-31
2023/01/09 09:56:15;;;;;;;4.20;1.20;;;7.90;99.90;;;;;;5034212;28;20205;-30
2023/01/09 09:58:45;;;;;;;3.83;0.90;;;7.80;99.90;;;;;;5016253;28;20269;-30
2023/01/09 10:01:15;;;;;;;7.83;1.43;;;7.80;99.90;;;;;;5041077;28;20184;-30
2023/01/09 10:03:47;;;;;;;2.03;1.30;;;7.70;99.90;;;;;;5027844;28;20204;-30
2023/01/09 10:06:28;;;;;;;5.23;1.40;;;7.80;99.90;;;;;;5036322;28;20184;-31
2023/01/09 10:09:15;;;;;;;6.50;2.17;;;7.90;99.90;;;;;;5019342;28;20205;-30
2023/01/09 10:12:22;;;;;;;4.97;1.90;;;7.90;99.90;;;;;;5054291;28;20188;-31
2023/01/09 10:14:48;;;;;;;6.67;1.50;;;7.90;99.90;;;;;;4975736;28;20176;-30
2023/01/09 10:17:31;;;;;;;4.17;1.67;;;7.90;99.90;;;;;;4975629;28;20203;-30
2023/01/09 10:20:00;;;;;;;9.17;3.03;;;7.90;99.90;;;;;;5027721;28;20197;-30
2023/01/09 10:23:04;;;;;;;4.73;2.13;;;7.90;99.90;;;;;;5053834;28;20181;-29
2023/01/09 10:26:02;;;;;;;7.07;1.77;;;7.80;99.90;;;;;;5053852;28;20256;-30
2023/01/09 10:28:58;;;;;;;7.60;1.57;;;7.80;99.90;;;;;;5035752;28;20256;-30
2023/01/09 10:31:43;;;;;;;3.37;1.10;;;7.70;99.90;;;;;;5049322;28;20344;-29
2023/01/09 10:34:12;;;;;;;4.83;1.43;;;7.70;99.90;;;;;;5048701;28;20192;-31
2023/01/09 10:37:00;;;;;;;4.93;1.23;;;7.60;99.90;;;;;;5053361;28;20210;-30
2023/01/09 10:39:34;;;;;;;26.70;12.23;;;7.60;99.90;;;;;;5031563;28;20174;-31
2023/01/09 10:42:10;;;;;;;5.63;1.30;;;7.60;99.90;;;;;;5032427;28;20197;-30
2023/01/09 10:44:58;;;;;;;4.93;1.07;;;7.60;99.90;;;;;;5032285;28;20181;-30
2023/01/09 10:47:34;;;;;;;2.47;1.10;;;7.70;99.90;;;;;;5021616;28;20257;-31
2023/01/09 10:50:12;;;;;;;2.80;1.30;;;7.70;99.90;;;;;;5032801;28;20228;-30
2023/01/09 10:52:41;;;;;;;4.73;1.37;;;7.80;99.90;;;;;;5023563;28;20186;-31
2023/01/09 10:55:37;;;;;;;3.87;1.10;;;7.80;99.90;;;;;;5033321;28;20181;-32
2023/01/09 10:58:11;;;;;;;3.03;1.30;;;7.80;99.90;;;;;;5031716;28;20257;-31
2023/01/09 11:00:38;;;;;;;3.87;1.27;;;7.80;99.90;;;;;;5031880;28;20332;-30
2023/01/09 11:03:04;;;;;;;4.90;1.40;;;7.80;99.90;;;;;;5044819;28;20180;-30
2023/01/09 11:05:30;;;;;;;2.30;1.30;;;7.70;99.90;;;;;;5028447;28;20185;-30
2023/01/09 11:08:12;;;;;;;6.37;1.37;;;7.80;99.90;;;;;;5034300;28;20210;-30
2023/01/09 11:10:45;;;;;;;4.37;1.97;;;7.80;99.90;;;;;;5024173;28;20202;-30
2023/01/09 11:13:24;;;;;;;5.83;1.20;;;7.70;99.90;;;;;;5040474;28;20177;-29
2023/01/09 11:16:05;;;;;;;5.17;1.40;;;7.80;99.90;;;;;;5052588;28;20166;-30
2023/01/09 11:18:38;;;;;;;3.00;1.10;;;7.80;99.90;;;;;;5028722;28;20195;-31
2023/01/09 11:21:27;;;;;;;5.50;1.43;;;8.00;99.90;;;;;;5032458;28;20189;-30
2023/01/09 11:23:55;;;;;;;4.97;1.33;;;8.10;99.90;;;;;;4995240;28;20183;-30
2023/01/09 11:26:27;;;;;;;4.00;1.40;;;8.20;99.90;;;;;;5008704;28;20187;-30
2023/01/09 11:29:25;;;;;;;2.93;1.10;;;8.30;99.90;;;;;;5013606;28;20305;-30
2023/01/09 11:32:00;;;;;;;2.10;1.20;;;8.30;99.90;;;;;;5022254;28;20191;-30
2023/01/09 11:34:30;;;;;;;4.23;1.70;;;8.30;99.90;;;;;;4995083;28;20174;-29
2023/01/09 11:37:07;;;;;;;4.07;1.67;;;8.30;99.90;;;;;;5011361;28;20199;-30
2023/01/09 11:39:36;;;;;;;3.60;1.50;;;8.30;99.90;;;;;;5024462;28;20284;-31
2023/01/09 11:42:06;;;;;;;4.17;1.10;;;8.30;99.90;;;;;;5029339;28;20262;-30
2023/01/09 11:44:32;;;;;;;4.03;1.50;;;8.30;99.90;;;;;;4997382;28;20179;-30
2023/01/09 11:46:58;;;;;;;3.83;0.90;;;8.30;99.90;;;;;;4997868;28;20215;-32
2023/01/09 11:49:29;;;;;;;2.37;1.03;;;8.30;99.90;;;;;;5013941;28;20167;-31
2023/01/09 11:52:14;;;;;;;3.17;1.23;;;8.40;99.90;;;;;;5031240;28;20183;-30
2023/01/09 11:54:51;;;;;;;3.17;0.93;;;8.40;99.90;;;;;;5031496;28;20174;-32
2023/01/09 11:57:17;;;;;;;4.13;1.33;;;8.40;99.90;;;;;;5032175;28;20198;-30
2023/01/09 11:59:43;;;;;;;6.60;1.40;;;8.50;99.90;;;;;;5031400;28;20190;-31
2023/01/09 12:02:25;;;;;;;6.40;1.17;;;8.60;99.90;;;;;;5025597;28;20205;-30
2023/01/09 12:05:07;;;;;;;4.00;0.90;;;8.70;99.90;;;;;;5022410;28;20297;-30
2023/01/09 12:07:52;;;;;;;3.53;1.40;;;8.70;99.90;;;;;;5031138;28;20191;-31
2023/01/09 12:10:29;;;;;;;2.80;1.20;;;8.80;99.90;;;;;;5012678;28;20256;-30
2023/01/09 12:13:30;;;;;;;4.63;1.23;;;8.70;99.90;;;;;;4996482;28;20171;-32
2023/01/09 12:15:59;;;;;;;3.40;0.90;;;8.80;99.90;;;;;;4996535;28;20171;-31
2023/01/09 12:19:12;;;;;;;2.30;0.77;;;8.80;99.90;;;;;;5012875;28;20329;-31
2023/01/09 12:22:15;;;;;;;4.87;1.10;;;8.80;99.90;;;;;;4948019;29;20220;-31
2023/01/09 12:24:56;;;;;;;4.93;0.90;;;8.80;99.90;;;;;;4932055;29;20184;-31
2023/01/09 12:27:39;;;;;;;3.53;1.43;;;8.80;99.90;;;;;;5022853;28;20202;-30
2023/01/09 12:30:27;;;;;;;2.30;0.83;;;8.70;99.90;;;;;;4997120;28;20686;-31
2023/01/09 12:32:52;;;;;;;2.03;0.80;;;8.70;99.90;;;;;;5031850;28;20228;-32
2023/01/09 12:36:09;;;;;;;2.60;0.77;;;8.60;99.90;;;;;;4999214;28;20183;-31
2023/01/09 12:38:40;;;;;;;1.67;0.83;;;8.70;99.90;;;;;;4961223;28;20290;-31
2023/01/09 12:41:09;;;;;;;2.47;0.80;;;8.70;99.90;;;;;;5012097;28;20180;-31
2023/01/09 12:43:57;;;;;;;1.13;0.60;;;8.70;99.90;;;;;;5010811;28;20187;-30
2023/01/09 12:46:27;;;;;;;1.03;0.40;;;8.90;99.90;;;;;;4996990;28;20178;-31
2023/01/09 12:48:58;;;;;;;0.70;0.40;;;8.80;99.90;;;;;;5025639;28;20293;-30
2023/01/09 12:51:39;;;;;;;0.57;0.37;;;8.60;99.90;;;;;;5014718;28;20214;-31
2023/01/09 12:54:04;;;;;;;1.50;0.57;;;8.50;99.90;;;;;;5018321;28;20178;-31
2023/01/09 12:56:40;;;;;;;2.03;0.77;;;8.40;99.90;;;;;;5001150;28;20174;-30
2023/01/09 12:59:29;;;;;;;1.43;0.70;;;8.40;99.90;;;;;;4993771;28;20182;-30
2023/01/09 13:02:23;;;;;;;0.77;0.53;;;8.40;99.90;;;;;;5016288;28;20216;-32
2023/01/09 13:04:57;;;;;;;0.97;0.90;;;8.50;99.90;;;;;;5011347;28;20239;-32
2023/01/09 13:07:29;;;;;;;1.73;0.80;;;8.60;99.90;;;;;;5037138;28;20234;-31
2023/01/09 13:10:26;;;;;;;1.80;0.60;;;8.50;99.90;;;;;;5021761;28;20709;-31
2023/01/09 13:12:53;;;;;;;1.00;0.70;;;8.40;99.90;;;;;;5015908;28;20190;-31
2023/01/09 13:15:35;;;;;;;3.37;0.70;;;8.20;99.90;;;;;;5016902;28;20182;-30
2023/01/09 13:18:10;;;;;;;0.80;0.70;;;8.10;99.90;;;;;;5034085;28;20194;-31
2023/01/09 13:20:55;;;;;;;0.90;0.60;;;8.00;99.90;;;;;;5034730;28;20274;-31
2023/01/09 13:23:48;;;;;;;0.70;0.70;;;7.90;99.90;;;;;;5017272;28;20179;-31
2023/01/09 13:26:23;;;;;;;0.60;0.60;;;7.90;99.90;;;;;;5016852;28;20185;-31
2023/01/09 13:29:02;;;;;;;2.43;1.47;;;7.90;99.90;;;;;;5016642;28;20201;-30
2023/01/09 13:31:52;;;;;;;1.33;0.90;;;7.90;99.90;;;;;;5017730;28;20205;-31
2023/01/09 13:34:22;;;;;;;1.50;0.70;;;7.90;99.90;;;;;;5014210;28;20182;-30